createdAt,value
2023-01-13T00:00:26.654Z,100061.07
2023-01-13T00:01:49.610Z,100062.27
2023-01-13T00:02:52.609Z,100061.07
2023-01-13T00:03:57.142Z,100064.83
2023-01-13T00:05:00.286Z,100060.23
2023-01-13T00:06:04.302Z,100063.04
2023-01-13T00:07:07.253Z,100059.11
2023-01-13T00:08:10.398Z,100058.40
2023-01-13T00:09:13.305Z,100058.94
2023-01-13T00:10:16.639Z,100055.89
2023-01-13T00:11:20.467Z,100057.24
2023-01-13T00:12:23.377Z,100057.79
2023-01-13T00:13:29.587Z,100055.63
2023-01-13T00:14:38.769Z,100054.23
2023-01-13T00:15:41.732Z,100058.11
2023-01-13T00:16:44.785Z,100054.23
2023-01-13T00:17:49.012Z,100054.27
2023-01-13T00:18:51.979Z,100056.98
2023-01-13T00:19:54.975Z,100060.09
2023-01-13T00:21:27.270Z,100061.17
2023-01-13T00:22:33.388Z,100058.04
2023-01-13T00:23:36.702Z,100062.10
2023-01-13T00:24:39.658Z,100057.69
2023-01-13T00:25:42.905Z,100060.10
2023-01-13T00:26:45.978Z,100064.73
2023-01-13T00:27:48.953Z,100066.55
2023-01-13T00:29:00.033Z,100062.67
2023-01-13T00:30:03.491Z,100061.11
2023-01-13T00:31:12.719Z,100060.66
2023-01-13T00:32:15.940Z,100057.02
2023-01-13T00:33:19.211Z,100057.44
2023-01-13T00:34:22.844Z,100062.16
2023-01-13T00:35:26.009Z,100062.38
2023-01-13T00:36:30.950Z,100058.34
2023-01-13T00:37:37.908Z,100060.48
2023-01-13T00:38:43.121Z,100056.02
2023-01-13T00:39:46.546Z,100056.46
2023-01-13T00:41:01.078Z,100057.81
2023-01-13T00:42:22.734Z,100050.40
2023-01-13T00:43:27.805Z,100051.44
2023-01-13T00:44:30.739Z,100050.02
2023-01-13T00:45:33.705Z,100047.98
2023-01-13T00:46:36.727Z,100051.02
2023-01-13T00:47:39.755Z,100047.02
2023-01-13T00:48:43.029Z,100050.02
2023-01-13T00:49:45.936Z,100047.31
2023-01-13T00:51:00.449Z,100047.39
2023-01-13T00:52:03.683Z,100045.05
2023-01-13T00:53:06.656Z,100046.59
2023-01-13T00:54:09.722Z,100050.60
2023-01-13T00:55:12.813Z,100050.63
2023-01-13T00:56:22.123Z,100046.90
2023-01-13T00:57:34.641Z,100045.20
2023-01-13T00:58:37.613Z,100047.14
2023-01-13T00:59:40.584Z,100041.23
2023-01-13T01:00:43.556Z,100044.46
2023-01-13T01:01:46.734Z,100043.63
2023-01-13T01:02:49.838Z,100045.20
2023-01-13T01:03:54.534Z,100041.16
2023-01-13T01:04:57.517Z,100040.90
2023-01-13T01:06:09.307Z,100036.73
2023-01-13T01:07:12.269Z,100039.21
2023-01-13T01:08:15.293Z,100037.23
2023-01-13T01:09:19.143Z,100036.98
2023-01-13T01:10:22.537Z,100036.69
2023-01-13T01:11:28.300Z,100033.64
2023-01-13T01:12:31.268Z,100029.78
2023-01-13T01:13:34.482Z,100029.78
2023-01-13T01:14:37.406Z,100028.59
2023-01-13T01:15:44.354Z,100025.20
2023-01-13T01:16:47.305Z,100026.60
2023-01-13T01:17:50.235Z,100024.26
2023-01-13T01:18:55.029Z,100026.94
2023-01-13T01:19:57.928Z,100024.71
2023-01-13T01:21:01.029Z,100022.10
2023-01-13T01:22:03.973Z,100021.90
2023-01-13T01:23:06.943Z,100020.70
2023-01-13T01:24:10.185Z,100020.62
2023-01-13T01:25:14.334Z,100021.15
2023-01-13T01:26:20.532Z,100018.96
2023-01-13T01:27:23.480Z,100016.12
2023-01-13T01:28:26.426Z,100013.92
2023-01-13T01:29:29.514Z,100016.12
2023-01-13T01:30:32.534Z,100012.77
2023-01-13T01:31:35.478Z,100015.04
2023-01-13T01:32:38.486Z,100015.62
2023-01-13T01:33:41.942Z,100011.52
2023-01-13T01:34:44.915Z,100011.20
2023-01-13T01:35:48.127Z,100010.00
2023-01-13T01:36:51.078Z,100006.34
2023-01-13T01:37:54.104Z,100006.97
2023-01-13T01:38:58.745Z,100003.41
2023-01-13T01:40:01.738Z,100003.10
2023-01-13T01:41:04.813Z,99997.35
2023-01-13T01:42:34.912Z,99994.16
2023-01-13T01:44:00.562Z,99998.35
2023-01-13T01:45:19.079Z,99994.36
2023-01-13T01:46:22.117Z,99989.45
2023-01-13T01:47:28.123Z,99984.55
2023-01-13T01:48:42.169Z,99984.81
2023-01-13T01:49:46.473Z,99985.11
2023-01-13T01:50:49.574Z,99983.51
2023-01-13T01:51:56.325Z,99980.59
2023-01-13T01:53:06.750Z,99982.04
2023-01-13T01:54:13.370Z,99981.17
2023-01-13T01:55:20.531Z,99977.30
2023-01-13T01:56:23.740Z,99975.47
2023-01-13T01:58:03.897Z,99975.83
2023-01-13T01:59:07.922Z,99973.63
2023-01-13T02:00:12.531Z,99974.88
2023-01-13T02:01:16.416Z,99971.10
2023-01-13T02:02:19.669Z,99972.83
2023-01-13T02:03:23.317Z,99968.90
2023-01-13T02:04:32.018Z,99971.96
2023-01-13T02:05:35.043Z,99965.13
2023-01-13T02:06:38.300Z,99966.38
2023-01-13T02:07:44.526Z,99969.34
2023-01-13T02:08:47.914Z,99967.73
2023-01-13T02:09:52.974Z,99965.04
2023-01-13T02:10:55.915Z,99965.30
2023-01-13T02:12:17.987Z,99965.95
2023-01-13T02:13:22.661Z,99962.31
2023-01-13T02:14:29.202Z,99965.04
2023-01-13T02:16:04.605Z,99967.36
2023-01-13T02:17:35.591Z,99963.80
2023-01-13T02:18:51.342Z,99959.06
2023-01-13T02:20:32.149Z,99959.60
2023-01-13T02:21:38.221Z,99962.36
2023-01-13T02:22:56.461Z,99965.63
2023-01-13T02:24:30.450Z,99957.83
2023-01-13T02:25:55.911Z,99954.94
2023-01-13T02:27:10.950Z,99947.40
2023-01-13T02:28:38.738Z,99951.77
2023-01-13T02:30:38.488Z,99948.06
2023-01-13T02:31:44.900Z,99943.38
2023-01-13T02:33:24.358Z,99945.92
2023-01-13T02:35:13.576Z,99944.68
2023-01-13T02:36:43.615Z,99945.17
2023-01-13T02:37:46.909Z,99944.13
2023-01-13T02:39:14.589Z,99941.17
2023-01-13T02:40:25.292Z,99943.33
2023-01-13T02:41:56.938Z,99945.54
2023-01-13T02:43:44.485Z,99942.17
2023-01-13T02:44:58.788Z,99944.05
2023-01-13T02:46:05.156Z,99944.36
2023-01-13T02:47:28.728Z,99940.07
2023-01-13T02:48:33.278Z,99940.73
2023-01-13T02:49:41.321Z,99940.72
2023-01-13T02:50:53.921Z,99940.14
2023-01-13T02:52:06.229Z,99936.71
2023-01-13T02:53:15.841Z,99937.52
2023-01-13T02:54:24.952Z,99932.30
2023-01-13T02:55:36.473Z,99932.69
2023-01-13T02:56:44.514Z,99936.54
2023-01-13T02:57:48.845Z,99932.77
2023-01-13T02:58:55.921Z,99933.70
2023-01-13T02:59:59.487Z,99935.38
2023-01-13T03:01:02.666Z,99936.83
2023-01-13T03:02:11.388Z,99934.63
2023-01-13T03:03:14.536Z,99936.02
2023-01-13T03:04:45.444Z,99930.52
2023-01-13T03:05:52.124Z,99928.65
2023-01-13T03:07:07.890Z,99930.58
2023-01-13T03:08:43.394Z,99928.64
2023-01-13T03:10:14.217Z,99930.09
2023-01-13T03:11:19.891Z,99927.08
2023-01-13T03:12:31.809Z,99926.92
2023-01-13T03:14:08.896Z,99926.98
2023-01-13T03:15:22.924Z,99924.80
2023-01-13T03:16:51.913Z,99922.11
2023-01-13T03:18:05.400Z,99920.38
2023-01-13T03:19:28.841Z,99916.04
2023-01-13T03:20:37.656Z,99919.16
2023-01-13T03:22:11.597Z,99919.05
2023-01-13T03:23:32.087Z,99916.64
2023-01-13T03:24:43.360Z,99915.61
2023-01-13T03:25:56.837Z,99916.90
2023-01-13T03:27:15.015Z,99917.39
2023-01-13T03:28:25.583Z,99916.59
2023-01-13T03:29:41.147Z,99917.08
2023-01-13T03:30:51.682Z,99922.19
2023-01-13T03:32:07.011Z,99923.83
2023-01-13T03:33:15.646Z,99919.77
2023-01-13T03:34:22.949Z,99918.82
2023-01-13T03:35:40.424Z,99919.48
2023-01-13T03:36:48.051Z,99919.16
2023-01-13T03:38:03.604Z,99917.40
2023-01-13T03:39:20.202Z,99915.59
2023-01-13T03:40:29.183Z,99918.92
2023-01-13T03:42:01.594Z,99920.14
2023-01-13T03:43:30.082Z,99917.39
2023-01-13T03:44:49.515Z,99915.87
2023-01-13T03:45:58.053Z,99918.70
2023-01-13T03:47:26.832Z,99913.80
2023-01-13T03:48:34.684Z,99911.54
2023-01-13T03:49:59.501Z,99914.27
2023-01-13T03:51:08.172Z,99915.82
2023-01-13T03:52:18.516Z,99912.90
2023-01-13T03:53:28.319Z,99915.84
2023-01-13T03:54:32.558Z,99910.02
2023-01-13T03:55:40.367Z,99909.30
2023-01-13T03:56:48.864Z,99905.71
2023-01-13T03:58:11.075Z,99908.02
2023-01-13T03:59:22.352Z,99909.95
2023-01-13T04:00:30.382Z,99906.11
2023-01-13T04:02:10.846Z,99907.61
2023-01-13T04:03:23.327Z,99912.70
2023-01-13T04:04:31.823Z,99913.08
2023-01-13T04:05:39.617Z,99908.92
2023-01-13T04:06:42.432Z,99909.73
2023-01-13T04:07:55.282Z,99914.09
2023-01-13T04:09:08.905Z,99907.42
2023-01-13T04:10:14.224Z,99907.91
2023-01-13T04:11:24.219Z,99906.95
2023-01-13T04:13:01.698Z,99904.55
2023-01-13T04:14:08.466Z,99906.65
2023-01-13T04:15:12.829Z,99902.56
2023-01-13T04:16:16.193Z,99906.77
2023-01-13T04:17:19.707Z,99901.77
2023-01-13T04:18:28.813Z,99901.65
2023-01-13T04:19:33.092Z,99905.65
2023-01-13T04:20:36.056Z,99902.52
2023-01-13T04:21:38.980Z,99902.73
2023-01-13T04:22:41.959Z,99897.73
2023-01-13T04:23:44.938Z,99898.21
2023-01-13T04:24:47.828Z,99900.70
2023-01-13T04:25:51.731Z,99899.29
2023-01-13T04:26:56.556Z,99899.09
2023-01-13T04:27:59.463Z,99896.44
2023-01-13T04:29:02.344Z,99895.41
2023-01-13T04:30:06.124Z,99896.81
2023-01-13T04:31:09.425Z,99893.64
2023-01-13T04:32:12.335Z,99895.89
2023-01-13T04:33:17.154Z,99894.02
2023-01-13T04:34:20.058Z,99888.73
2023-01-13T04:35:23.048Z,99892.68
2023-01-13T04:36:27.768Z,99896.48
2023-01-13T04:37:30.738Z,99893.79
2023-01-13T04:38:34.044Z,99893.67
2023-01-13T04:39:37.114Z,99897.27
2023-01-13T04:40:41.762Z,99895.27
2023-01-13T04:41:59.994Z,99894.21
2023-01-13T04:43:03.468Z,99895.23
2023-01-13T04:44:06.392Z,99889.91
2023-01-13T04:45:09.942Z,99891.58
2023-01-13T04:46:12.895Z,99892.80
2023-01-13T04:47:15.824Z,99887.74
2023-01-13T04:48:18.717Z,99893.92
2023-01-13T04:49:21.590Z,99890.10
2023-01-13T04:50:26.309Z,99886.96
2023-01-13T04:51:29.265Z,99890.96
2023-01-13T04:52:32.718Z,99882.29
2023-01-13T04:53:35.751Z,99884.27
2023-01-13T04:54:38.615Z,99888.73
2023-01-13T04:55:41.873Z,99885.55
2023-01-13T04:56:44.849Z,99889.48
2023-01-13T04:57:47.738Z,99894.06
2023-01-13T04:58:50.719Z,99890.23
2023-01-13T04:59:53.603Z,99889.60
2023-01-13T05:00:56.701Z,99887.59
2023-01-13T05:01:59.698Z,99888.94
2023-01-13T05:03:03.089Z,99884.20
2023-01-13T05:04:07.745Z,99890.45
2023-01-13T05:05:10.901Z,99887.52
2023-01-13T05:06:14.115Z,99891.09
2023-01-13T05:07:17.477Z,99891.71
2023-01-13T05:08:20.361Z,99892.19
2023-01-13T05:09:23.245Z,99890.17
2023-01-13T05:10:27.344Z,99891.83
2023-01-13T05:11:48.855Z,99893.73
2023-01-13T05:13:10.413Z,99895.70
2023-01-13T05:14:31.808Z,99893.27
2023-01-13T05:15:53.491Z,99892.34
2023-01-13T05:17:03.672Z,99897.05
2023-01-13T05:18:07.106Z,99895.21
2023-01-13T05:19:10.180Z,99894.77
2023-01-13T05:20:13.511Z,99896.11
2023-01-13T05:21:35.043Z,99889.66
2023-01-13T05:22:56.600Z,99890.69
2023-01-13T05:24:18.314Z,99888.89
2023-01-13T05:25:21.543Z,99890.61
2023-01-13T05:26:24.552Z,99891.16
2023-01-13T05:27:27.808Z,99892.11
2023-01-13T05:28:34.762Z,99896.70
2023-01-13T05:29:37.633Z,99892.80
2023-01-13T05:30:44.656Z,99888.84
2023-01-13T05:31:47.544Z,99890.43
2023-01-13T05:32:51.240Z,99893.00
2023-01-13T05:33:54.113Z,99887.26
2023-01-13T05:34:57.058Z,99894.94
2023-01-13T05:36:03.012Z,99891.34
2023-01-13T05:37:07.822Z,99891.17
2023-01-13T05:38:11.232Z,99895.56
2023-01-13T05:39:14.207Z,99895.69
2023-01-13T05:40:37.911Z,99894.13
2023-01-13T05:41:59.533Z,99892.73
2023-01-13T05:43:21.508Z,99895.31
2023-01-13T05:44:24.407Z,99891.16
2023-01-13T05:45:27.306Z,99890.34
2023-01-13T05:46:30.247Z,99896.41
2023-01-13T05:47:33.134Z,99898.16
2023-01-13T05:48:41.757Z,99897.14
2023-01-13T05:49:44.696Z,99901.10
2023-01-13T05:50:49.731Z,99901.67
2023-01-13T05:51:52.651Z,99903.50
2023-01-13T05:52:55.528Z,99900.84
2023-01-13T05:53:59.317Z,99897.00
2023-01-13T05:55:02.259Z,99897.70
2023-01-13T05:56:06.444Z,99896.34
2023-01-13T05:57:09.323Z,99896.41
2023-01-13T05:58:15.319Z,99895.50
2023-01-13T05:59:18.203Z,99896.09
2023-01-13T06:00:21.388Z,99899.47
2023-01-13T06:01:24.332Z,99898.75
2023-01-13T06:02:27.373Z,99903.20
2023-01-13T06:03:31.151Z,99902.71
2023-01-13T06:04:34.117Z,99901.08
2023-01-13T06:05:37.528Z,99903.75
2023-01-13T06:06:40.544Z,99908.27
2023-01-13T06:07:43.436Z,99906.18
2023-01-13T06:08:46.360Z,99907.48
2023-01-13T06:09:49.381Z,99907.20
2023-01-13T06:10:52.338Z,99914.52
2023-01-13T06:11:55.175Z,99914.06
2023-01-13T06:12:58.043Z,99912.52
2023-01-13T06:14:00.935Z,99914.20
2023-01-13T06:15:04.040Z,99915.55
2023-01-13T06:16:07.212Z,99917.66
2023-01-13T06:17:12.967Z,99908.64
2023-01-13T06:18:19.712Z,99911.54
2023-01-13T06:19:23.100Z,99913.31
2023-01-13T06:20:26.003Z,99915.86
2023-01-13T06:21:28.964Z,99917.04
2023-01-13T06:22:33.016Z,99912.54
2023-01-13T06:23:38.723Z,99916.58
2023-01-13T06:24:41.857Z,99911.70
2023-01-13T06:25:44.996Z,99917.70
2023-01-13T06:26:48.031Z,99916.12
2023-01-13T06:27:51.987Z,99921.15
2023-01-13T06:28:54.875Z,99914.66
2023-01-13T06:29:57.734Z,99917.09
2023-01-13T06:31:05.902Z,99915.95
2023-01-13T06:32:32.590Z,99916.13
2023-01-13T06:33:42.949Z,99922.41
2023-01-13T06:34:50.495Z,99916.22
2023-01-13T06:35:58.208Z,99916.27
2023-01-13T06:37:03.432Z,99919.05
2023-01-13T06:38:11.045Z,99918.77
2023-01-13T06:39:21.975Z,99918.77
2023-01-13T06:40:25.456Z,99921.04
2023-01-13T06:41:49.842Z,99918.55
2023-01-13T06:43:16.112Z,99919.53
2023-01-13T06:44:21.229Z,99919.55
2023-01-13T06:45:27.057Z,99914.73
2023-01-13T06:46:30.113Z,99915.50
2023-01-13T06:47:33.229Z,99914.65
2023-01-13T06:48:36.372Z,99915.58
2023-01-13T06:49:39.385Z,99911.73
2023-01-13T06:50:42.415Z,99914.20
2023-01-13T06:51:46.579Z,99913.98
2023-01-13T06:52:49.633Z,99917.65
2023-01-13T06:53:52.514Z,99917.92
2023-01-13T06:54:55.442Z,99921.16
2023-01-13T06:55:58.268Z,99920.81
2023-01-13T06:57:02.433Z,99918.61
2023-01-13T06:58:06.133Z,99917.06
2023-01-13T06:59:09.085Z,99920.77
2023-01-13T07:00:12.793Z,99918.36
2023-01-13T07:01:15.762Z,99915.66
2023-01-13T07:02:18.910Z,99921.60
2023-01-13T07:03:25.861Z,99913.33
2023-01-13T07:04:28.737Z,99919.16
2023-01-13T07:05:31.644Z,99915.55
2023-01-13T07:06:34.529Z,99913.38
2023-01-13T07:07:37.469Z,99914.95
2023-01-13T07:08:40.293Z,99915.70
2023-01-13T07:09:43.168Z,99918.23
2023-01-13T07:10:46.526Z,99917.55
2023-01-13T07:11:49.922Z,99914.13
2023-01-13T07:13:11.535Z,99916.05
2023-01-13T07:14:32.890Z,99916.33
2023-01-13T07:15:36.701Z,99919.14
2023-01-13T07:16:40.496Z,99918.02
2023-01-13T07:17:43.373Z,99921.79
2023-01-13T07:18:46.271Z,99916.33
2023-01-13T07:19:49.168Z,99916.60
2023-01-13T07:20:53.923Z,99915.58
2023-01-13T07:21:56.820Z,99913.42
2023-01-13T07:22:59.746Z,99917.52
2023-01-13T07:24:02.626Z,99919.70
2023-01-13T07:25:05.936Z,99918.17
2023-01-13T07:26:10.504Z,99912.43
2023-01-13T07:27:13.380Z,99912.64
2023-01-13T07:28:16.723Z,99912.43
2023-01-13T07:29:19.777Z,99918.67
2023-01-13T07:30:22.712Z,99918.29
2023-01-13T07:31:26.136Z,99923.83
2023-01-13T07:32:31.426Z,99917.01
2023-01-13T07:33:34.272Z,99919.48
2023-01-13T07:34:37.120Z,99923.02
2023-01-13T07:35:39.952Z,99919.55
2023-01-13T07:36:43.015Z,99920.89
2023-01-13T07:37:45.981Z,99920.20
2023-01-13T07:38:49.110Z,99921.71
2023-01-13T07:39:52.006Z,99921.33
2023-01-13T07:40:55.309Z,99921.04
2023-01-13T07:42:16.791Z,99923.19
2023-01-13T07:43:32.598Z,99921.77
2023-01-13T07:44:35.705Z,99920.88
2023-01-13T07:45:38.600Z,99921.57
2023-01-13T07:46:41.543Z,99920.23
2023-01-13T07:47:44.732Z,99919.70
2023-01-13T07:48:49.203Z,99921.59
2023-01-13T07:49:52.046Z,99921.17
2023-01-13T07:50:55.707Z,99921.56
2023-01-13T07:51:58.600Z,99920.27
2023-01-13T07:53:01.502Z,99923.52
2023-01-13T07:54:05.281Z,99921.06
2023-01-13T07:55:08.572Z,99921.27
2023-01-13T07:56:11.456Z,99920.31
2023-01-13T07:57:14.337Z,99917.48
2023-01-13T07:58:17.288Z,99921.20
2023-01-13T07:59:20.147Z,99923.10
2023-01-13T08:00:23.589Z,99922.67
2023-01-13T08:01:28.152Z,99925.64
2023-01-13T08:02:31.228Z,99920.94
2023-01-13T08:03:34.272Z,99921.64
2023-01-13T08:04:37.682Z,99921.61
2023-01-13T08:05:40.566Z,99925.11
2023-01-13T08:06:43.941Z,99920.73
2023-01-13T08:07:46.850Z,99922.33
2023-01-13T08:08:50.250Z,99923.19
2023-01-13T08:09:53.712Z,99924.02
2023-01-13T08:11:00.444Z,99922.91
2023-01-13T08:12:22.062Z,99925.49
2023-01-13T08:13:24.948Z,99925.46
2023-01-13T08:14:27.847Z,99925.20
2023-01-13T08:15:32.598Z,99929.84
2023-01-13T08:16:35.564Z,99924.27
2023-01-13T08:17:38.599Z,99924.73
2023-01-13T08:18:42.166Z,99927.27
2023-01-13T08:19:45.146Z,99926.26
2023-01-13T08:20:52.723Z,99927.55
2023-01-13T08:21:57.045Z,99927.41
2023-01-13T08:23:01.042Z,99926.36
2023-01-13T08:24:04.104Z,99926.42
2023-01-13T08:25:07.503Z,99926.56
2023-01-13T08:26:14.076Z,99924.17
2023-01-13T08:27:16.937Z,99923.88
2023-01-13T08:28:19.848Z,99925.64
2023-01-13T08:29:22.701Z,99927.27
2023-01-13T08:30:26.971Z,99929.50
2023-01-13T08:31:29.991Z,99928.50
2023-01-13T08:32:32.845Z,99931.33
2023-01-13T08:33:35.872Z,99927.84
2023-01-13T08:34:38.750Z,99926.20
2023-01-13T08:35:42.318Z,99929.39
2023-01-13T08:36:45.535Z,99925.05
2023-01-13T08:37:49.537Z,99927.29
2023-01-13T08:38:52.520Z,99926.84
2023-01-13T08:39:55.454Z,99929.83
2023-01-13T08:40:59.155Z,99931.52
2023-01-13T08:42:03.514Z,99931.87
2023-01-13T08:43:06.445Z,99931.84
2023-01-13T08:44:09.507Z,99926.27
2023-01-13T08:45:13.726Z,99930.91
2023-01-13T08:46:16.653Z,99932.07
2023-01-13T08:47:19.697Z,99934.89
2023-01-13T08:48:22.583Z,99931.70
2023-01-13T08:49:26.649Z,99936.09
2023-01-13T08:50:29.750Z,99932.99
2023-01-13T08:51:32.634Z,99933.27
2023-01-13T08:52:35.528Z,99934.97
2023-01-13T08:53:38.493Z,99932.13
2023-01-13T08:54:41.716Z,99935.05
2023-01-13T08:55:44.856Z,99937.48
2023-01-13T08:56:48.550Z,99935.98
2023-01-13T08:57:52.119Z,99930.23
2023-01-13T08:59:00.287Z,99939.70
2023-01-13T09:00:07.066Z,99939.95
2023-01-13T09:01:14.078Z,99940.80
2023-01-13T09:02:20.558Z,99938.98
2023-01-13T09:03:23.508Z,99936.73
2023-01-13T09:04:28.284Z,99938.30
2023-01-13T09:05:31.243Z,99941.09
2023-01-13T09:06:34.391Z,99935.23
2023-01-13T09:07:38.588Z,99935.51
2023-01-13T09:08:41.809Z,99934.16
2023-01-13T09:09:45.110Z,99936.95
2023-01-13T09:10:48.092Z,99932.66
2023-01-13T09:12:10.546Z,99930.08
2023-01-13T09:13:14.757Z,99932.45
2023-01-13T09:14:23.028Z,99929.55
2023-01-13T09:15:26.365Z,99930.91
2023-01-13T09:16:29.470Z,99934.25
2023-01-13T09:17:32.629Z,99932.55
2023-01-13T09:18:35.505Z,99931.58
2023-01-13T09:19:38.382Z,99931.29
2023-01-13T09:20:41.538Z,99930.91
2023-01-13T09:21:44.415Z,99927.60
2023-01-13T09:22:47.312Z,99926.91
2023-01-13T09:23:50.233Z,99929.13
2023-01-13T09:24:54.698Z,99931.79
2023-01-13T09:25:57.556Z,99928.05
2023-01-13T09:27:00.555Z,99922.19
2023-01-13T09:28:05.114Z,99928.66
2023-01-13T09:29:07.980Z,99926.58
2023-01-13T09:30:11.420Z,99924.80
2023-01-13T09:31:14.350Z,99925.34
2023-01-13T09:32:17.589Z,99924.94
2023-01-13T09:33:39.836Z,99928.13
2023-01-13T09:35:01.084Z,99925.88
2023-01-13T09:36:04.335Z,99922.30
2023-01-13T09:37:07.790Z,99918.27
2023-01-13T09:38:10.771Z,99916.77
2023-01-13T09:39:14.324Z,99916.80
2023-01-13T09:40:22.764Z,99915.54
2023-01-13T09:41:48.191Z,99911.36
2023-01-13T09:43:09.426Z,99912.92
2023-01-13T09:44:20.296Z,99915.66
2023-01-13T09:45:44.424Z,99918.34
2023-01-13T09:46:53.415Z,99913.55
2023-01-13T09:47:56.756Z,99916.54
2023-01-13T09:49:01.865Z,99914.30
2023-01-13T09:50:18.451Z,99915.73
2023-01-13T09:51:36.009Z,99915.21
2023-01-13T09:52:39.401Z,99913.89
2023-01-13T09:53:55.864Z,99907.77
2023-01-13T09:55:05.718Z,99912.73
2023-01-13T09:56:13.932Z,99912.43
2023-01-13T09:57:20.255Z,99914.39
2023-01-13T09:58:24.965Z,99912.22
2023-01-13T09:59:34.741Z,99911.55
2023-01-13T10:00:41.576Z,99911.39
2023-01-13T10:02:26.080Z,99907.16
2023-01-13T10:03:32.193Z,99907.12
2023-01-13T10:04:35.091Z,99905.02
2023-01-13T10:05:44.712Z,99904.88
2023-01-13T10:06:52.231Z,99904.57
2023-01-13T10:08:01.951Z,99910.94
2023-01-13T10:09:06.154Z,99906.79
2023-01-13T10:10:16.955Z,99903.66
2023-01-13T10:11:41.762Z,99902.02
2023-01-13T10:13:07.612Z,99901.02
2023-01-13T10:14:16.885Z,99900.51
2023-01-13T10:15:23.689Z,99901.59
2023-01-13T10:16:43.697Z,99901.13
2023-01-13T10:17:55.480Z,99895.23
2023-01-13T10:19:06.021Z,99899.04
2023-01-13T10:20:21.237Z,99893.30
2023-01-13T10:22:09.619Z,99892.11
2023-01-13T10:23:34.563Z,99895.38
2023-01-13T10:25:05.184Z,99893.06
2023-01-13T10:26:25.403Z,99890.80
2023-01-13T10:27:34.604Z,99893.73
2023-01-13T10:28:37.492Z,99893.80
2023-01-13T10:29:40.369Z,99889.30
2023-01-13T10:30:46.200Z,99889.58
2023-01-13T10:31:49.076Z,99892.73
2023-01-13T10:32:59.987Z,99890.52
2023-01-13T10:34:06.519Z,99885.95
2023-01-13T10:35:09.354Z,99889.48
2023-01-13T10:36:12.158Z,99884.75
2023-01-13T10:37:21.669Z,99888.16
2023-01-13T10:38:30.550Z,99890.00
2023-01-13T10:40:02.109Z,99886.20
2023-01-13T10:41:06.557Z,99884.30
2023-01-13T10:42:15.411Z,99883.36
2023-01-13T10:43:18.383Z,99879.92
2023-01-13T10:44:21.327Z,99885.10
2023-01-13T10:45:25.997Z,99887.66
2023-01-13T10:46:30.658Z,99886.92
2023-01-13T10:47:37.262Z,99882.29
2023-01-13T10:48:43.262Z,99883.44
2023-01-13T10:50:00.096Z,99887.39
2023-01-13T10:51:20.359Z,99882.52
2023-01-13T10:52:31.693Z,99877.30
2023-01-13T10:53:46.654Z,99878.35
2023-01-13T10:54:55.239Z,99877.83
2023-01-13T10:56:04.171Z,99878.81
2023-01-13T10:57:19.031Z,99881.19
2023-01-13T10:58:22.199Z,99881.26
2023-01-13T10:59:27.054Z,99877.54
2023-01-13T11:00:32.242Z,99872.00
2023-01-13T11:01:35.430Z,99871.54
2023-01-13T11:02:38.945Z,99878.86
2023-01-13T11:03:44.550Z,99871.54
2023-01-13T11:04:58.062Z,99870.86
2023-01-13T11:06:01.359Z,99868.59
2023-01-13T11:07:16.934Z,99868.23
2023-01-13T11:08:26.014Z,99865.92
2023-01-13T11:09:30.956Z,99863.09
2023-01-13T11:10:34.149Z,99866.59
2023-01-13T11:11:39.460Z,99864.77
2023-01-13T11:12:54.524Z,99865.61
2023-01-13T11:14:21.590Z,99868.54
2023-01-13T11:15:43.515Z,99869.73
2023-01-13T11:16:53.804Z,99865.29
2023-01-13T11:18:19.567Z,99865.88
2023-01-13T11:19:27.609Z,99867.30
2023-01-13T11:20:37.086Z,99871.95
2023-01-13T11:22:22.046Z,99870.68
2023-01-13T11:23:43.149Z,99871.16
2023-01-13T11:24:52.001Z,99872.55
2023-01-13T11:26:02.546Z,99876.13
2023-01-13T11:27:35.995Z,99870.96
2023-01-13T11:29:05.908Z,99872.19
2023-01-13T11:30:36.924Z,99868.88
2023-01-13T11:31:47.496Z,99862.97
2023-01-13T11:33:07.955Z,99865.14
2023-01-13T11:34:35.651Z,99864.95
2023-01-13T11:35:42.309Z,99864.06
2023-01-13T11:36:50.968Z,99866.02
2023-01-13T11:37:59.258Z,99864.56
2023-01-13T11:39:14.696Z,99861.08
2023-01-13T11:40:40.871Z,99864.21
2023-01-13T11:42:20.732Z,99862.86
2023-01-13T11:43:32.811Z,99861.06
2023-01-13T11:44:44.019Z,99860.30
2023-01-13T11:45:53.839Z,99859.44
2023-01-13T11:46:56.968Z,99860.20
2023-01-13T11:48:02.168Z,99854.80
2023-01-13T11:49:05.269Z,99857.70
2023-01-13T11:50:28.951Z,99856.77
2023-01-13T11:51:53.273Z,99852.92
2023-01-13T11:53:20.405Z,99850.65
2023-01-13T11:54:42.101Z,99848.96
2023-01-13T11:56:11.826Z,99844.28
2023-01-13T11:57:17.364Z,99842.44
2023-01-13T11:58:58.315Z,99842.39
2023-01-13T12:00:23.804Z,99840.55
2023-01-13T12:02:01.884Z,99841.40
2023-01-13T12:03:07.758Z,99839.52
2023-01-13T12:04:31.852Z,99844.14
2023-01-13T12:05:34.945Z,99841.50
2023-01-13T12:06:41.446Z,99840.48
2023-01-13T12:08:09.925Z,99840.95
2023-01-13T12:09:23.047Z,99840.89
2023-01-13T12:10:44.029Z,99847.03
2023-01-13T12:12:33.893Z,99845.30
2023-01-13T12:13:44.609Z,99842.96
2023-01-13T12:15:21.330Z,99847.73
2023-01-13T12:16:27.618Z,99850.23
2023-01-13T12:18:07.740Z,99844.69
2023-01-13T12:19:18.746Z,99839.40
2023-01-13T12:20:30.500Z,99842.80
2023-01-13T12:21:39.547Z,99844.31
2023-01-13T12:22:46.784Z,99840.05
2023-01-13T12:24:21.090Z,99839.46
2023-01-13T12:25:34.504Z,99840.38
2023-01-13T12:26:42.694Z,99841.79
2023-01-13T12:27:52.410Z,99838.77
2023-01-13T12:29:05.981Z,99837.27
2023-01-13T12:30:23.159Z,99838.92
2023-01-13T12:31:27.740Z,99837.38
2023-01-13T12:32:36.406Z,99840.27
2023-01-13T12:33:53.255Z,99845.02
2023-01-13T12:35:20.163Z,99841.05
2023-01-13T12:36:42.674Z,99840.90
2023-01-13T12:38:27.116Z,99841.79
2023-01-13T12:40:02.470Z,99843.89
2023-01-13T12:42:06.807Z,99842.58
2023-01-13T12:43:42.534Z,99839.38
2023-01-13T12:45:22.908Z,99838.40
2023-01-13T12:46:28.816Z,99833.84
2023-01-13T12:47:37.467Z,99837.10
2023-01-13T12:48:57.009Z,99838.48
2023-01-13T12:50:26.157Z,99839.30
2023-01-13T12:51:33.552Z,99840.07
2023-01-13T12:52:45.699Z,99833.81
2023-01-13T12:53:48.829Z,99835.23
2023-01-13T12:54:53.444Z,99834.04
2023-01-13T12:56:36.721Z,99836.15
2023-01-13T12:57:40.414Z,99833.35
2023-01-13T12:58:43.283Z,99832.33
2023-01-13T13:00:13.083Z,99834.05
2023-01-13T13:01:18.458Z,99836.38
2023-01-13T13:02:33.340Z,99838.41
2023-01-13T13:03:37.249Z,99842.84
2023-01-13T13:04:42.825Z,99837.11
2023-01-13T13:05:48.946Z,99837.75
2023-01-13T13:07:04.989Z,99838.83
2023-01-13T13:08:38.028Z,99834.94
2023-01-13T13:09:48.479Z,99835.42
2023-01-13T13:11:38.104Z,99838.23
2023-01-13T13:13:00.070Z,99840.55
2023-01-13T13:14:05.804Z,99842.60
2023-01-13T13:15:26.291Z,99840.87
2023-01-13T13:16:31.924Z,99843.99
2023-01-13T13:17:34.830Z,99846.20
2023-01-13T13:18:37.710Z,99847.11
2023-01-13T13:19:42.193Z,99847.61
2023-01-13T13:21:11.714Z,99850.36
2023-01-13T13:22:14.709Z,99849.11
2023-01-13T13:23:32.816Z,99852.15
2023-01-13T13:24:35.830Z,99852.89
2023-01-13T13:26:04.850Z,99847.94
2023-01-13T13:27:46.056Z,99851.55
2023-01-13T13:29:07.463Z,99851.81
2023-01-13T13:30:41.616Z,99853.21
2023-01-13T13:32:07.230Z,99849.91
2023-01-13T13:33:39.827Z,99854.94